Aeroporto :
LOGIN :

Iscrizione | Disclaimer

   EN    FR    IT 

 










Sommario :    VFR   VFR Marginale   IFR   IFR Intensivo   IFR Molto Intensivo
Visibilità : 
Base nubi : 
>= 8 km
>= 3000ft
5 / 8 km
1000 / 3000 ft
1500m / 5 km
500 / 1000 ft
800 / 1500m
200 / 500 ft
< 800m
< 200 ft
Simboli :   Temporali  Nebbia  Neve Forte  Precipitazioni Forti  Vento > 20 kt
SIGMETs :   Varie  Temporali  Ghiacco  Turbolenza  Onda orograficha  Ceneri Vulcaniche







- Altitudine del aeroporto : 913 ft
- Carte del aeroporto


LFSX - Luxeuil

ULTIMO METAR :
  • 181030Z AUTO 11005KT CAVOK 05/02 Q1022 NOSIG

METARs OBSOLETI :
  • 181000Z AUTO 11006KT CAVOK 03/02 Q1023 NOSIG
  • 180930Z AUTO 11005KT CAVOK 02/01 Q1024 NOSIG
  • 180900Z AUTO 09005KT CAVOK 01/01 Q1024 NOSIG
  • 180830Z AUTO 08006KT CAVOK 01/00 Q1024 NOSIG
  • 180800Z AUTO 09005KT CAVOK M00/M01 Q1025

TAF TAF LFSX
Valido dal 18 a 09 ore il 19 a 09 ore UTC


180800Z 1809/1909 12010KT CAVOK
Nessun NOTAM noto per questo aeroporto.



MetMap, La meteo Aeronautica in un colpo d'occhio ! - Copyright ORBIFLY Dicembre 2007 - Disclaimer

ORBIFLY MET'MAP TEAM :

Programmazione e sviluppo : Alexandra Zaïnal
Concezione e sviluppo : Baudouin d'Aumeries
Co-Programmazione e sviluppo : Marc-Olivier Méhu
Supporto tecnico e logistico : Manuel Goepfert
Aiuto per la traduzione : Arnaldo La Scala

Contatto : metmap@orbifly.com




FONTI E CREDITI :

   NOAA